sensor_id;sensor_type;location;lat;lon;timestamp;pressure;altitude;pressure_sealevel;temperature;humidity
68489;BME280;55481;48.764;8.936;2023-02-11T00:07:07;98950;;;-3.2;76.5
68489;BME280;55481;48.764;8.936;2023-02-11T00:09:38;98940;;;-3.1;76.5
68489;BME280;55481;48.764;8.936;2023-02-11T00:12:08;98950;;;-3.3;76.5
68489;BME280;55481;48.764;8.936;2023-02-11T00:14:52;98950;;;-3.4;77
68489;BME280;55481;48.764;8.936;2023-02-11T00:17:22;98950;;;-3.3;77
68489;BME280;55481;48.764;8.936;2023-02-11T00:19:53;98960;;;-3.3;76.5
68489;BME280;55481;48.764;8.936;2023-02-11T00:24:47;98950;;;-3.4;77
68489;BME280;55481;48.764;8.936;2023-02-11T00:27:18;98950;;;-3.5;77
68489;BME280;55481;48.764;8.936;2023-02-11T00:29:49;98950;;;-3.4;77
68489;BME280;55481;48.764;8.936;2023-02-11T00:37:33;98930;;;-3.3;76.5
68489;BME280;55481;48.764;8.936;2023-02-11T00:39:57;98940;;;-3.3;76.5
68489;BME280;55481;48.764;8.936;2023-02-11T00:44:52;98930;;;-3.3;76.5
68489;BME280;55481;48.764;8.936;2023-02-11T00:47:23;98930;;;-3.2;76.5
68489;BME280;55481;48.764;8.936;2023-02-11T00:52:18;98940;;;-3.2;76.5
68489;BME280;55481;48.764;8.936;2023-02-11T00:54:48;98940;;;-3.3;76.5
68489;BME280;55481;48.764;8.936;2023-02-11T01:02:21;98950;;;-3.6;77
68489;BME280;55481;48.764;8.936;2023-02-11T01:04:52;98940;;;-3.7;77.5
68489;BME280;55481;48.764;8.936;2023-02-11T01:12:33;98940;;;-3.7;77
68489;BME280;55481;48.764;8.936;2023-02-11T01:15:01;98930;;;-3.7;77
68489;BME280;55481;48.764;8.936;2023-02-11T01:17:33;98930;;;-3.6;77
68489;BME280;55481;48.764;8.936;2023-02-11T01:22:26;98920;;;-3.4;76.5
68489;BME280;55481;48.764;8.936;2023-02-11T01:24:57;98910;;;-3.4;76.5
68489;BME280;55481;48.764;8.936;2023-02-11T01:27:28;98910;;;-3.3;76.5
68489;BME280;55481;48.764;8.936;2023-02-11T01:37:32;98890;;;-3.4;76.5
68489;BME280;55481;48.764;8.936;2023-02-11T01:42:45;98890;;;-3.6;77
68489;BME280;55481;48.764;8.936;2023-02-11T01:45:52;98890;;;-3.7;77
68489;BME280;55481;48.764;8.936;2023-02-11T01:50:09;98890;;;-3.6;77
68489;BME280;55481;48.764;8.936;2023-02-11T01:52:40;98890;;;-3.6;77
68489;BME280;55481;48.764;8.936;2023-02-11T01:55:12;98900;;;-3.7;77
68489;BME280;55481;48.764;8.936;2023-02-11T01:57:37;98890;;;-3.8;77
68489;BME280;55481;48.764;8.936;2023-02-11T02:05:15;98890;;;-3.7;77
68489;BME280;55481;48.764;8.936;2023-02-11T02:07:43;98880;;;-3.7;77
68489;BME280;55481;48.764;8.936;2023-02-11T02:10:12;98880;;;-3.6;77
68489;BME280;55481;48.764;8.936;2023-02-11T02:15:19;98870;;;-3.4;77
68489;BME280;55481;48.764;8.936;2023-02-11T02:17:53;98880;;;-3.3;76.5
68489;BME280;55481;48.764;8.936;2023-02-11T02:20:25;98880;;;-3.3;76.5
68489;BME280;55481;48.764;8.936;2023-02-11T02:22:51;98870;;;-3.2;76.5
68489;BME280;55481;48.764;8.936;2023-02-11T02:25:34;98860;;;-3.2;76.5
68489;BME280;55481;48.764;8.936;2023-02-11T02:33:51;98850;;;-3.5;77
68489;BME280;55481;48.764;8.936;2023-02-11T02:35:21;98850;;;-3.4;76.5
68489;BME280;55481;48.764;8.936;2023-02-11T02:37:50;98850;;;-3.3;76.5
68489;BME280;55481;48.764;8.936;2023-02-11T02:42:55;98840;;;-3.2;76.5
68489;BME280;55481;48.764;8.936;2023-02-11T02:45:26;98840;;;-3.2;76.5
68489;BME280;55481;48.764;8.936;2023-02-11T02:47:56;98840;;;-3.4;77
68489;BME280;55481;48.764;8.936;2023-02-11T02:50:35;98840;;;-3.4;77
68489;BME280;55481;48.764;8.936;2023-02-11T02:53:06;98840;;;-3.4;76.5
68489;BME280;55481;48.764;8.936;2023-02-11T02:55:33;98840;;;-3.4;76.5
68489;BME280;55481;48.764;8.936;2023-02-11T02:58:11;98840;;;-3.5;77
68489;BME280;55481;48.764;8.936;2023-02-11T03:03:16;98840;;;-3.9;77.5
68489;BME280;55481;48.764;8.936;2023-02-11T03:05:41;98840;;;-3.7;77.5
68489;BME280;55481;48.764;8.936;2023-02-11T03:08:04;98840;;;-3.7;77.5
68489;BME280;55481;48.764;8.936;2023-02-11T03:10:35;98840;;;-3.8;77.5
68489;BME280;55481;48.764;8.936;2023-02-11T03:15:42;98820;;;-3.7;77.5
68489;BME280;55481;48.764;8.936;2023-02-11T03:18:11;98830;;;-3.5;77
68489;BME280;55481;48.764;8.936;2023-02-11T03:20:35;98830;;;-3.5;76.5
68489;BME280;55481;48.764;8.936;2023-02-11T03:23:14;98830;;;-3.5;76.5
68489;BME280;55481;48.764;8.936;2023-02-11T03:25:44;98830;;;-3.7;77
68489;BME280;55481;48.764;8.936;2023-02-11T03:28:17;98830;;;-3.7;77.5
68489;BME280;55481;48.764;8.936;2023-02-11T03:33:30;98810;;;-3.7;77.5
68489;BME280;55481;48.764;8.936;2023-02-11T03:35:49;98800;;;-3.7;77.5
68489;BME280;55481;48.764;8.936;2023-02-11T03:40:47;98790;;;-3.6;77
68489;BME280;55481;48.764;8.936;2023-02-11T03:43:19;98800;;;-3.6;77
68489;BME280;55481;48.764;8.936;2023-02-11T03:45:41;98820;;;-3.6;77
68489;BME280;55481;48.764;8.936;2023-02-11T03:48:15;98830;;;-3.5;76.5
68489;BME280;55481;48.764;8.936;2023-02-11T03:55:38;98820;;;-3.6;77
68489;BME280;55481;48.764;8.936;2023-02-11T03:58:08;98810;;;-3.7;77.5
68489;BME280;55481;48.764;8.936;2023-02-11T04:03:11;98810;;;-3.7;77
68489;BME280;55481;48.764;8.936;2023-02-11T04:05:41;98810;;;-3.7;77.5
68489;BME280;55481;48.764;8.936;2023-02-11T04:10:48;98810;;;-3.4;77
68489;BME280;55481;48.764;8.936;2023-02-11T04:13:20;98820;;;-3.1;76.5
68489;BME280;55481;48.764;8.936;2023-02-11T04:15:51;98810;;;-3;76.5
68489;BME280;55481;48.764;8.936;2023-02-11T04:18:21;98820;;;-2.9;76.5
68489;BME280;55481;48.764;8.936;2023-02-11T04:20:52;98830;;;-2.8;76
68489;BME280;55481;48.764;8.936;2023-02-11T04:25:48;98830;;;-2.6;76
68489;BME280;55481;48.764;8.936;2023-02-11T04:28:18;98830;;;-2.6;76
68489;BME280;55481;48.764;8.936;2023-02-11T04:30:49;98830;;;-2.7;76.5
68489;BME280;55481;48.764;8.936;2023-02-11T04:33:20;98820;;;-2.7;76.5
68489;BME280;55481;48.764;8.936;2023-02-11T04:35:50;98830;;;-2.6;76.5
68489;BME280;55481;48.764;8.936;2023-02-11T04:38:21;98820;;;-2.5;76.5
68489;BME280;55481;48.764;8.936;2023-02-11T04:40:52;98820;;;-2.5;76.5
68489;BME280;55481;48.764;8.936;2023-02-11T04:43:22;98820;;;-2.4;76.5
68489;BME280;55481;48.764;8.936;2023-02-11T04:46:00;98810;;;-2.3;76.5
68489;BME280;55481;48.764;8.936;2023-02-11T04:48:31;98810;;;-2.3;76.5
68489;BME280;55481;48.764;8.936;2023-02-11T04:51:02;98810;;;-2.3;76
68489;BME280;55481;48.764;8.936;2023-02-11T04:58:47;98810;;;-2.2;76
68489;BME280;55481;48.764;8.936;2023-02-11T05:01:13;98820;;;-2.1;76
68489;BME280;55481;48.764;8.936;2023-02-11T05:03:42;98820;;;-2;76
68489;BME280;55481;48.764;8.936;2023-02-11T05:08:35;98810;;;-1.7;75.5
68489;BME280;55481;48.764;8.936;2023-02-11T05:11:06;98800;;;-1.7;75.5
68489;BME280;55481;48.764;8.936;2023-02-11T05:13:37;98790;;;-1.9;76
68489;BME280;55481;48.764;8.936;2023-02-11T05:23:33;98780;;;-1.8;76.5
68489;BME280;55481;48.764;8.936;2023-02-11T05:26:04;98760;;;-1.8;76.5
68489;BME280;55481;48.764;8.936;2023-02-11T05:28:35;98750;;;-1.7;76.5
68489;BME280;55481;48.764;8.936;2023-02-11T05:31:05;98750;;;-1.6;76.5
68489;BME280;55481;48.764;8.936;2023-02-11T05:33:36;98750;;;-1.5;76
68489;BME280;55481;48.764;8.936;2023-02-11T05:36:16;98740;;;-1.4;75.5
68489;BME280;55481;48.764;8.936;2023-02-11T05:38:45;98740;;;-1.5;75.5
68489;BME280;55481;48.764;8.936;2023-02-11T05:41:16;98740;;;-1.5;76
68489;BME280;55481;48.764;8.936;2023-02-11T05:43:39;98740;;;-1.5;76
68489;BME280;55481;48.764;8.936;2023-02-11T05:51:11;98740;;;-1.3;76.5
68489;BME280;55481;48.764;8.936;2023-02-11T05:53:42;98740;;;-1.2;76
68489;BME280;55481;48.764;8.936;2023-02-11T05:56:14;98740;;;-1.2;76
68489;BME280;55481;48.764;8.936;2023-02-11T05:58:44;98750;;;-1.1;76
68489;BME280;55481;48.764;8.936;2023-02-11T06:01:14;98770;;;-1;75.5
68489;BME280;55481;48.764;8.936;2023-02-11T06:03:46;98760;;;-1;75.5
68489;BME280;55481;48.764;8.936;2023-02-11T06:08:53;98760;;;-1;76
68489;BME280;55481;48.764;8.936;2023-02-11T06:11:24;98750;;;-1.3;76.5
68489;BME280;55481;48.764;8.936;2023-02-11T06:13:55;98760;;;-1.2;76.5
68489;BME280;55481;48.764;8.936;2023-02-11T06:16:26;98770;;;-1.1;76.5
68489;BME280;55481;48.764;8.936;2023-02-11T06:19:04;98780;;;-0.9;76
68489;BME280;55481;48.764;8.936;2023-02-11T06:21:40;98780;;;-1.1;76
68489;BME280;55481;48.764;8.936;2023-02-11T06:26:28;98790;;;-1.2;76.5
68489;BME280;55481;48.764;8.936;2023-02-11T06:28:59;98790;;;-1.1;76
68489;BME280;55481;48.764;8.936;2023-02-11T06:31:30;98780;;;-1.3;76.5
68489;BME280;55481;48.764;8.936;2023-02-11T06:33:54;98770;;;-1.3;77
68489;BME280;55481;48.764;8.936;2023-02-11T06:36:24;98770;;;-1.1;76.5
68489;BME280;55481;48.764;8.936;2023-02-11T06:38:56;98760;;;-1;76.5
68489;BME280;55481;48.764;8.936;2023-02-11T06:46:28;98770;;;-1;76.5
68489;BME280;55481;48.764;8.936;2023-02-11T06:48:59;98770;;;-0.8;76
68489;BME280;55481;48.764;8.936;2023-02-11T06:51:40;98770;;;-0.6;75.5
68489;BME280;55481;48.764;8.936;2023-02-11T06:54:00;98780;;;-0.7;75.5
68489;BME280;55481;48.764;8.936;2023-02-11T06:56:31;98780;;;-0.8;76
68489;BME280;55481;48.764;8.936;2023-02-11T06:59:01;98780;;;-0.8;76.5
68489;BME280;55481;48.764;8.936;2023-02-11T07:06:34;98780;;;-0.8;76.5
68489;BME280;55481;48.764;8.936;2023-02-11T07:09:05;98790;;;-0.7;76
68489;BME280;55481;48.764;8.936;2023-02-11T07:11:35;98790;;;-0.6;76
68489;BME280;55481;48.764;8.936;2023-02-11T07:14:06;98790;;;-0.6;76
68489;BME280;55481;48.764;8.936;2023-02-11T07:16:43;98790;;;-0.5;76
68489;BME280;55481;48.764;8.936;2023-02-11T07:19:14;98790;;;-0.6;76
68489;BME280;55481;48.764;8.936;2023-02-11T07:24:09;98780;;;-0.5;76
68489;BME280;55481;48.764;8.936;2023-02-11T07:26:41;98780;;;-0.5;76
68489;BME280;55481;48.764;8.936;2023-02-11T07:31:42;98780;;;-0.4;76
68489;BME280;55481;48.764;8.936;2023-02-11T07:34:20;98790;;;-0.4;76
68489;BME280;55481;48.764;8.936;2023-02-11T07:36:44;98790;;;-0.3;75.5
68489;BME280;55481;48.764;8.936;2023-02-11T07:39:21;98800;;;-0.3;75.5
68489;BME280;55481;48.764;8.936;2023-02-11T07:41:52;98810;;;-0.2;75.5
68489;BME280;55481;48.764;8.936;2023-02-11T07:46:47;98800;;;0.1;75
68489;BME280;55481;48.764;8.936;2023-02-11T07:49:18;98800;;;0.1;75
68489;BME280;55481;48.764;8.936;2023-02-11T07:56:50;98800;;;0;75.5
68489;BME280;55481;48.764;8.936;2023-02-11T07:59:21;98800;;;0;127.5
68489;BME280;55481;48.764;8.936;2023-02-11T08:01:52;98790;;;0;127.5
68489;BME280;55481;48.764;8.936;2023-02-11T08:04:22;98780;;;0.2;76
68489;BME280;55481;48.764;8.936;2023-02-11T08:09:36;98770;;;0.4;75.5
68489;BME280;55481;48.764;8.936;2023-02-11T08:12:08;98770;;;0.7;75
68489;BME280;55481;48.764;8.936;2023-02-11T08:14:38;98780;;;0.8;74.5
68489;BME280;55481;48.764;8.936;2023-02-11T08:19:34;98780;;;1;74.5
68489;BME280;55481;48.764;8.936;2023-02-11T08:22:04;98770;;;1;75
68489;BME280;55481;48.764;8.936;2023-02-11T08:24:35;98770;;;1.1;75
68489;BME280;55481;48.764;8.936;2023-02-11T08:27:15;98770;;;1.3;74.5
68489;BME280;55481;48.764;8.936;2023-02-11T08:29:42;98770;;;1.4;74.5
68489;BME280;55481;48.764;8.936;2023-02-11T08:32:10;98780;;;1.4;74.5
68489;BME280;55481;48.764;8.936;2023-02-11T08:34:37;98770;;;1.4;74.5
68489;BME280;55481;48.764;8.936;2023-02-11T08:37:08;98770;;;1.4;74.5
68489;BME280;55481;48.764;8.936;2023-02-11T08:39:40;98770;;;1.6;74.5
68489;BME280;55481;48.764;8.936;2023-02-11T08:42:17;98770;;;1.6;75
68489;BME280;55481;48.764;8.936;2023-02-11T08:44:48;98770;;;1.6;74.5
68489;BME280;55481;48.764;8.936;2023-02-11T08:52:20;98760;;;1.6;75
68489;BME280;55481;48.764;8.936;2023-02-11T08:54:50;98750;;;1.7;75
68489;BME280;55481;48.764;8.936;2023-02-11T08:59:44;98750;;;2.4;74
68489;BME280;55481;48.764;8.936;2023-02-11T09:02:15;98750;;;3;73
68489;BME280;55481;48.764;8.936;2023-02-11T09:04:46;98740;;;3.4;72.5
68489;BME280;55481;48.764;8.936;2023-02-11T09:07:17;98740;;;3.5;72.5
68489;BME280;55481;48.764;8.936;2023-02-11T09:09:54;98740;;;3.7;72
68489;BME280;55481;48.764;8.936;2023-02-11T09:12:25;98750;;;3.9;72
68489;BME280;55481;48.764;8.936;2023-02-11T09:17:21;98750;;;3.5;73
68489;BME280;55481;48.764;8.936;2023-02-11T09:22:29;98750;;;3.8;73
68489;BME280;55481;48.764;8.936;2023-02-11T09:24:59;98750;;;3.8;73
68489;BME280;55481;48.764;8.936;2023-02-11T09:27:29;98750;;;3.7;73.5
68489;BME280;55481;48.764;8.936;2023-02-11T09:32:23;98730;;;3.9;73.5
68489;BME280;55481;48.764;8.936;2023-02-11T09:34:55;98730;;;4.1;73
68489;BME280;55481;48.764;8.936;2023-02-11T09:37:33;98730;;;4;73.5
68489;BME280;55481;48.764;8.936;2023-02-11T09:40:04;98730;;;4.2;73.5
68489;BME280;55481;48.764;8.936;2023-02-11T09:45:19;98730;;;4.5;73
68489;BME280;55481;48.764;8.936;2023-02-11T09:47:38;98740;;;4.5;73
68489;BME280;55481;48.764;8.936;2023-02-11T09:50:09;98740;;;4.3;73
68489;BME280;55481;48.764;8.936;2023-02-11T09:55:02;98740;;;4.2;74
68489;BME280;55481;48.764;8.936;2023-02-11T09:57:34;98750;;;4.4;73.5
68489;BME280;55481;48.764;8.936;2023-02-11T10:00:17;98750;;;4.4;74
68489;BME280;55481;48.764;8.936;2023-02-11T10:02:35;98750;;;4.5;73.5
68489;BME280;55481;48.764;8.936;2023-02-11T10:05:16;98750;;;4.7;73.5
68489;BME280;55481;48.764;8.936;2023-02-11T10:07:50;98750;;;4.8;73
68489;BME280;55481;48.764;8.936;2023-02-11T10:15:14;98760;;;4.8;73.5
68489;BME280;55481;48.764;8.936;2023-02-11T10:17:42;98760;;;5;73.5
68489;BME280;55481;48.764;8.936;2023-02-11T10:20:06;98760;;;5.3;73
68489;BME280;55481;48.764;8.936;2023-02-11T10:22:34;98760;;;5.3;73
68489;BME280;55481;48.764;8.936;2023-02-11T10:35:11;98770;;;5.8;72
68489;BME280;55481;48.764;8.936;2023-02-11T10:37:36;98770;;;5.9;72
68489;BME280;55481;48.764;8.936;2023-02-11T10:45:22;98750;;;6.1;72
68489;BME280;55481;48.764;8.936;2023-02-11T10:47:50;98750;;;5.9;72.5
68489;BME280;55481;48.764;8.936;2023-02-11T10:50:19;98750;;;5.9;72.5
68489;BME280;55481;48.764;8.936;2023-02-11T10:52:45;98740;;;6;72.5
68489;BME280;55481;48.764;8.936;2023-02-11T10:55:18;98730;;;6.2;72.5
68489;BME280;55481;48.764;8.936;2023-02-11T11:02:42;98720;;;6.6;72
68489;BME280;55481;48.764;8.936;2023-02-11T11:05:14;98710;;;6.8;71.5
68489;BME280;55481;48.764;8.936;2023-02-11T11:07:59;98710;;;6.8;71.5
68489;BME280;55481;48.764;8.936;2023-02-11T11:10:25;98700;;;7;71.5
68489;BME280;55481;48.764;8.936;2023-02-11T11:12:47;98700;;;7.2;71
68489;BME280;55481;48.764;8.936;2023-02-11T11:15:19;98700;;;7.3;71
68489;BME280;55481;48.764;8.936;2023-02-11T11:17:48;98700;;;7.4;71
68489;BME280;55481;48.764;8.936;2023-02-11T11:20:21;98700;;;7.3;71
68489;BME280;55481;48.764;8.936;2023-02-11T11:22:49;98700;;;7.2;71.5
68489;BME280;55481;48.764;8.936;2023-02-11T11:32:52;98690;;;7.4;71.5
68489;BME280;55481;48.764;8.936;2023-02-11T11:35:29;98700;;;7.5;71
68489;BME280;55481;48.764;8.936;2023-02-11T11:38:01;98710;;;7;72
68489;BME280;55481;48.764;8.936;2023-02-11T11:40:32;98710;;;6.8;73
68489;BME280;55481;48.764;8.936;2023-02-11T11:43:16;98710;;;6.9;73
68489;BME280;55481;48.764;8.936;2023-02-11T11:45:33;98710;;;6.6;73.5
68489;BME280;55481;48.764;8.936;2023-02-11T11:48:16;98710;;;6.7;73.5
68489;BME280;55481;48.764;8.936;2023-02-11T11:50:42;98710;;;6.8;73
68489;BME280;55481;48.764;8.936;2023-02-11T11:55:40;98700;;;7.2;72.5
68489;BME280;55481;48.764;8.936;2023-02-11T11:58:08;98690;;;7.9;71.5
68489;BME280;55481;48.764;8.936;2023-02-11T12:00:48;98680;;;8.2;70.5
68489;BME280;55481;48.764;8.936;2023-02-11T12:03:12;98680;;;7.8;71.5
68489;BME280;55481;48.764;8.936;2023-02-11T12:05:34;98690;;;7.8;71.5
68489;BME280;55481;48.764;8.936;2023-02-11T12:08:05;98680;;;8;71.5
68489;BME280;55481;48.764;8.936;2023-02-11T12:10:38;98680;;;8.5;70.5
68489;BME280;55481;48.764;8.936;2023-02-11T12:18:08;98670;;;8.8;70.5
68489;BME280;55481;48.764;8.936;2023-02-11T12:20:54;98680;;;8.3;71.5
68489;BME280;55481;48.764;8.936;2023-02-11T12:25:45;98680;;;7.4;73.5
68489;BME280;55481;48.764;8.936;2023-02-11T12:28:18;98670;;;7.6;73.5
68489;BME280;55481;48.764;8.936;2023-02-11T12:30:55;98680;;;7.8;73
68489;BME280;55481;48.764;8.936;2023-02-11T12:33:24;98680;;;7.9;72.5
68489;BME280;55481;48.764;8.936;2023-02-11T12:39:19;98680;;;8.5;71.5
68489;BME280;55481;48.764;8.936;2023-02-11T12:40:44;98680;;;8.8;70.5
68489;BME280;55481;48.764;8.936;2023-02-11T12:48:21;98680;;;8.5;71
68489;BME280;55481;48.764;8.936;2023-02-11T12:50:48;98680;;;8.4;71.5
68489;BME280;55481;48.764;8.936;2023-02-11T12:53:23;98680;;;8.5;71.5
68489;BME280;55481;48.764;8.936;2023-02-11T12:55:47;98680;;;8.4;71.5
68489;BME280;55481;48.764;8.936;2023-02-11T12:58:18;98670;;;8.2;72.5
68489;BME280;55481;48.764;8.936;2023-02-11T13:00:59;98670;;;8.2;72.5
68489;BME280;55481;48.764;8.936;2023-02-11T13:03:34;98670;;;8.4;72.5
68489;BME280;55481;48.764;8.936;2023-02-11T13:05:57;98670;;;8.5;72
68489;BME280;55481;48.764;8.936;2023-02-11T13:08:24;98670;;;8.6;71.5
68489;BME280;55481;48.764;8.936;2023-02-11T13:16:01;98660;;;8.7;71.5
68489;BME280;55481;48.764;8.936;2023-02-11T13:18:59;98650;;;8.7;71.5
68489;BME280;55481;48.764;8.936;2023-02-11T13:20:57;98650;;;8.7;72
68489;BME280;55481;48.764;8.936;2023-02-11T13:26:09;98650;;;8.6;72.5
68489;BME280;55481;48.764;8.936;2023-02-11T13:28:41;98650;;;8.5;72
68489;BME280;55481;48.764;8.936;2023-02-11T13:31:04;98650;;;8.5;72
68489;BME280;55481;48.764;8.936;2023-02-11T13:33:36;98650;;;8.4;72.5
68489;BME280;55481;48.764;8.936;2023-02-11T13:44:23;98650;;;8.5;72
68489;BME280;55481;48.764;8.936;2023-02-11T13:46:29;98650;;;8.2;72.5
68489;BME280;55481;48.764;8.936;2023-02-11T13:51:16;98650;;;8.4;72
68489;BME280;55481;48.764;8.936;2023-02-11T13:53:47;98660;;;8.4;72
68489;BME280;55481;48.764;8.936;2023-02-11T13:56:30;98660;;;8.3;72
68489;BME280;55481;48.764;8.936;2023-02-11T13:58:47;98660;;;8.3;72
68489;BME280;55481;48.764;8.936;2023-02-11T14:01:10;98660;;;8.3;72
68489;BME280;55481;48.764;8.936;2023-02-11T14:03:42;98660;;;8.3;72
68489;BME280;55481;48.764;8.936;2023-02-11T14:06:21;98650;;;8.3;72
68489;BME280;55481;48.764;8.936;2023-02-11T14:11:47;98650;;;8.3;72
68489;BME280;55481;48.764;8.936;2023-02-11T14:14:13;98650;;;8.2;72
68489;BME280;55481;48.764;8.936;2023-02-11T14:16:18;98650;;;8.1;72.5
68489;BME280;55481;48.764;8.936;2023-02-11T14:21:23;98650;;;8;73
68489;BME280;55481;48.764;8.936;2023-02-11T14:23:49;98650;;;8.2;72
68489;BME280;55481;48.764;8.936;2023-02-11T14:26:25;98650;;;8.2;72
68489;BME280;55481;48.764;8.936;2023-02-11T14:28:59;98650;;;8;72.5
68489;BME280;55481;48.764;8.936;2023-02-11T14:31:22;98650;;;8;72.5
68489;BME280;55481;48.764;8.936;2023-02-11T14:33:57;98650;;;7.9;73
68489;BME280;55481;48.764;8.936;2023-02-11T14:36:36;98640;;;8;72.5
68489;BME280;55481;48.764;8.936;2023-02-11T14:39:17;98640;;;7.9;73
68489;BME280;55481;48.764;8.936;2023-02-11T14:41:40;98650;;;7.9;73
68489;BME280;55481;48.764;8.936;2023-02-11T14:46:31;98650;;;7.9;73
68489;BME280;55481;48.764;8.936;2023-02-11T14:48:57;98650;;;7.9;73
68489;BME280;55481;48.764;8.936;2023-02-11T14:51:28;98650;;;7.9;72.5
68489;BME280;55481;48.764;8.936;2023-02-11T14:54:02;98650;;;7.9;72.5
68489;BME280;55481;48.764;8.936;2023-02-11T15:03:55;98660;;;8.3;71.5
68489;BME280;55481;48.764;8.936;2023-02-11T15:06:35;98660;;;8.4;71
68489;BME280;55481;48.764;8.936;2023-02-11T15:08:59;98660;;;8.4;71
68489;BME280;55481;48.764;8.936;2023-02-11T15:11:30;98660;;;8.3;71.5
68489;BME280;55481;48.764;8.936;2023-02-11T15:16:42;98670;;;8;72
68489;BME280;55481;48.764;8.936;2023-02-11T15:19:06;98670;;;7.8;72
68489;BME280;55481;48.764;8.936;2023-02-11T15:21:43;98680;;;7.6;72.5
68489;BME280;55481;48.764;8.936;2023-02-11T15:24:31;98680;;;7.6;72.5
68489;BME280;55481;48.764;8.936;2023-02-11T15:29:37;98680;;;8;71.5
68489;BME280;55481;48.764;8.936;2023-02-11T15:31:46;98680;;;7.9;71.5
68489;BME280;55481;48.764;8.936;2023-02-11T15:36:40;98680;;;7.5;72.5
68489;BME280;55481;48.764;8.936;2023-02-11T15:39:15;98690;;;7.4;72.5
68489;BME280;55481;48.764;8.936;2023-02-11T15:41:43;98690;;;7.4;72.5
68489;BME280;55481;48.764;8.936;2023-02-11T15:51:39;98700;;;7.1;73
68489;BME280;55481;48.764;8.936;2023-02-11T15:54:25;98710;;;6.9;73
68489;BME280;55481;48.764;8.936;2023-02-11T15:56:40;98710;;;6.8;73
68489;BME280;55481;48.764;8.936;2023-02-11T15:59:15;98710;;;6.7;73.5
68489;BME280;55481;48.764;8.936;2023-02-11T16:01:41;98710;;;6.5;73.5
68489;BME280;55481;48.764;8.936;2023-02-11T16:04:16;98710;;;6.5;73.5
68489;BME280;55481;48.764;8.936;2023-02-11T16:06:43;98710;;;6.4;73.5
68489;BME280;55481;48.764;8.936;2023-02-11T16:09:22;98720;;;6.3;74
68489;BME280;55481;48.764;8.936;2023-02-11T16:13:42;98720;;;6.4;74
68489;BME280;55481;48.764;8.936;2023-02-11T16:18:14;98720;;;6.7;73.5
68489;BME280;55481;48.764;8.936;2023-02-11T16:20:36;98720;;;6.5;73.5
68489;BME280;55481;48.764;8.936;2023-02-11T16:23:07;98720;;;6.4;73.5
68489;BME280;55481;48.764;8.936;2023-02-11T16:25:37;98730;;;6.3;73.5
68489;BME280;55481;48.764;8.936;2023-02-11T16:28:11;98730;;;6.2;73.5
68489;BME280;55481;48.764;8.936;2023-02-11T16:30:40;98740;;;6.2;73.5
68489;BME280;55481;48.764;8.936;2023-02-11T16:33:16;98750;;;6.2;73.5
68489;BME280;55481;48.764;8.936;2023-02-11T16:40:48;98750;;;6;73
68489;BME280;55481;48.764;8.936;2023-02-11T16:58:17;98770;;;5.8;73
68489;BME280;55481;48.764;8.936;2023-02-11T17:00:49;98770;;;5.8;73
68489;BME280;55481;48.764;8.936;2023-02-11T17:03:20;98760;;;5.8;73
68489;BME280;55481;48.764;8.936;2023-02-11T17:05:49;98760;;;5.8;73
68489;BME280;55481;48.764;8.936;2023-02-11T17:08:20;98760;;;5.8;73
68489;BME280;55481;48.764;8.936;2023-02-11T17:10:50;98770;;;5.8;73
68489;BME280;55481;48.764;8.936;2023-02-11T17:13:21;98770;;;5.8;73
68489;BME280;55481;48.764;8.936;2023-02-11T17:15:53;98770;;;5.8;73
68489;BME280;55481;48.764;8.936;2023-02-11T17:23:37;98770;;;5.8;73
68489;BME280;55481;48.764;8.936;2023-02-11T17:31:07;98770;;;5.7;73.5
68489;BME280;55481;48.764;8.936;2023-02-11T17:33:34;98770;;;5.7;73.5
68489;BME280;55481;48.764;8.936;2023-02-11T17:38:42;98770;;;5.7;73.5
68489;BME280;55481;48.764;8.936;2023-02-11T17:41:16;98770;;;5.7;73.5
68489;BME280;55481;48.764;8.936;2023-02-11T17:43:35;98780;;;5.7;73.5
68489;BME280;55481;48.764;8.936;2023-02-11T17:46:06;98770;;;5.6;73.5
68489;BME280;55481;48.764;8.936;2023-02-11T17:48:37;98780;;;5.5;74
68489;BME280;55481;48.764;8.936;2023-02-11T17:51:23;98780;;;5.5;74
68489;BME280;55481;48.764;8.936;2023-02-11T17:59:08;98790;;;5.5;74
68489;BME280;55481;48.764;8.936;2023-02-11T18:01:28;98790;;;5.6;74
68489;BME280;55481;48.764;8.936;2023-02-11T18:06:11;98800;;;5.5;74
68489;BME280;55481;48.764;8.936;2023-02-11T18:08:48;98810;;;5.4;74
68489;BME280;55481;48.764;8.936;2023-02-11T18:13:44;98800;;;5.4;74
68489;BME280;55481;48.764;8.936;2023-02-11T18:16:15;98800;;;5.3;74.5
68489;BME280;55481;48.764;8.936;2023-02-11T18:18:46;98800;;;5.2;74.5
68489;BME280;55481;48.764;8.936;2023-02-11T18:21:18;98800;;;5.2;74.5
68489;BME280;55481;48.764;8.936;2023-02-11T18:23:48;98800;;;5.1;74.5
68489;BME280;55481;48.764;8.936;2023-02-11T18:26:19;98810;;;5.1;74.5
68489;BME280;55481;48.764;8.936;2023-02-11T18:28:51;98810;;;5.1;74.5
68489;BME280;55481;48.764;8.936;2023-02-11T18:38:46;98820;;;5.1;74.5
68489;BME280;55481;48.764;8.936;2023-02-11T18:41:17;98820;;;5.1;74.5
68489;BME280;55481;48.764;8.936;2023-02-11T18:43:48;98820;;;5.1;74.5
68489;BME280;55481;48.764;8.936;2023-02-11T18:46:19;98820;;;5.1;74.5
68489;BME280;55481;48.764;8.936;2023-02-11T18:48:58;98820;;;5;74.5
68489;BME280;55481;48.764;8.936;2023-02-11T18:51:20;98820;;;5.1;74.5
68489;BME280;55481;48.764;8.936;2023-02-11T18:53:51;98820;;;5.1;74.5
68489;BME280;55481;48.764;8.936;2023-02-11T18:56:22;98820;;;5.1;74.5
68489;BME280;55481;48.764;8.936;2023-02-11T19:06:32;98830;;;4.8;75
68489;BME280;55481;48.764;8.936;2023-02-11T19:11:33;98820;;;4.9;74.5
68489;BME280;55481;48.764;8.936;2023-02-11T19:14:03;98820;;;4.9;74.5
68489;BME280;55481;48.764;8.936;2023-02-11T19:16:39;98830;;;5;74.5
68489;BME280;55481;48.764;8.936;2023-02-11T19:19:05;98820;;;5;74
68489;BME280;55481;48.764;8.936;2023-02-11T19:21:30;98820;;;4.9;74.5
68489;BME280;55481;48.764;8.936;2023-02-11T19:31:32;98810;;;4.9;74.5
68489;BME280;55481;48.764;8.936;2023-02-11T19:34:03;98810;;;4.8;74.5
68489;BME280;55481;48.764;8.936;2023-02-11T19:36:36;98810;;;4.6;75
68489;BME280;55481;48.764;8.936;2023-02-11T19:39:05;98820;;;4.6;75
68489;BME280;55481;48.764;8.936;2023-02-11T19:41:36;98820;;;4.6;75
68489;BME280;55481;48.764;8.936;2023-02-11T19:46:44;98830;;;4.6;74.5
68489;BME280;55481;48.764;8.936;2023-02-11T19:49:14;98830;;;4.6;75
68489;BME280;55481;48.764;8.936;2023-02-11T19:51:45;98830;;;4.6;75
68489;BME280;55481;48.764;8.936;2023-02-11T19:54:16;98830;;;4.7;74.5
68489;BME280;55481;48.764;8.936;2023-02-11T19:56:53;98820;;;4.7;74.5
68489;BME280;55481;48.764;8.936;2023-02-11T19:59:30;98820;;;4.7;74.5
68489;BME280;55481;48.764;8.936;2023-02-11T20:04:16;98820;;;4.7;74.5